Time;durP1;ratioP1;P1;durP2;ratioP2;P2;SDS_P1;SDS_P2;PMS_P1;PMS_P2;Temp;Humidity;BMP_temperature;BMP_pressure;BME280_temperature;BME280_humidity;BME280_pressure;Samples;Min_cycle;Max_cycle;Signal;HPM_P1;HPM_P2
2023/12/01 00:00:47;;;;;;;1.43;1.33;;;;;;;-143.84;100.00;45205.22;5088176;28;20531;-59
2023/12/01 00:03:14;;;;;;;1.40;1.20;;;;;;;-143.84;100.00;45144.28;5088436;28;20444;-58
2023/12/01 00:05:41;;;;;;;0.80;0.60;;;;;;;-143.84;100.00;45184.25;5088409;28;20489;-58
2023/12/01 00:08:08;;;;;;;1.20;1.10;;;;;;;-143.84;100.00;45153.81;5088193;28;20946;-58
2023/12/01 00:10:37;;;;;;;0.90;0.80;;;;;;;-143.84;100.00;45178.56;5088253;28;20485;-59
2023/12/01 00:13:04;;;;;;;2.03;1.10;;;;;;;-143.84;100.00;45165.22;5088023;28;20534;-58
2023/12/01 00:15:31;;;;;;;2.90;1.10;;;;;;;-143.84;100.00;45172.84;5088017;28;21386;-59
2023/12/01 00:17:58;;;;;;;0.80;0.80;;;;;;;-143.84;100.00;45172.84;5088509;28;20436;-58
2023/12/01 00:20:25;;;;;;;0.90;0.77;;;;;;;-143.84;100.00;45186.16;5088187;28;20976;-58
2023/12/01 00:22:53;;;;;;;1.50;1.10;;;;;;;-143.84;100.00;45159.50;5088786;28;20435;-59
2023/12/01 00:25:20;;;;;;;2.33;2.13;;;;;;;-143.84;100.00;45167.13;5092164;28;20438;-59
2023/12/01 00:27:48;;;;;;;3.10;1.77;;;;;;;-143.84;100.00;45186.16;5091741;28;20440;-59
2023/12/01 00:30:16;;;;;;;4.70;2.70;;;;;;;-143.84;100.00;45199.50;5092064;28;20820;-58
2023/12/01 00:32:43;;;;;;;17.00;3.23;;;;;;;-143.84;100.00;45163.31;5091861;28;20504;-58
2023/12/01 00:35:10;;;;;;;0.80;0.50;;;;;;;-143.84;100.00;45176.66;5091749;28;20440;-58
2023/12/01 00:37:37;;;;;;;1.27;1.17;;;;;;;-143.84;100.00;45176.66;5091650;28;20861;-58
2023/12/01 00:40:06;;;;;;;2.00;1.80;;;;;;;-143.84;100.00;45167.13;5091217;28;20479;-59
2023/12/01 00:42:33;;;;;;;0.90;0.80;;;;;;;-143.84;100.00;45163.31;5091363;28;20526;-59
2023/12/01 00:45:02;;;;;;;1.70;1.60;;;;;;;-143.84;100.00;45174.75;5091257;28;21014;-58
2023/12/01 00:47:30;;;;;;;1.20;0.93;;;;;;;-143.84;100.00;45170.94;5091164;28;20448;-58
2023/12/01 00:49:57;;;;;;;2.07;1.20;;;;;;;-143.84;100.00;45170.94;5091276;28;20436;-59
2023/12/01 00:52:24;;;;;;;0.93;0.83;;;;;;;-143.84;100.00;45191.88;5091541;28;20439;-59
2023/12/01 00:54:51;;;;;;;0.80;0.50;;;;;;;-143.84;100.00;45191.88;5091092;28;20511;-59
2023/12/01 00:57:19;;;;;;;0.90;0.80;;;;;;;-143.84;100.00;45188.06;5091233;28;20440;-59
2023/12/01 00:59:46;;;;;;;2.10;2.00;;;;;;;-143.84;100.00;45165.22;5091307;28;20859;-58
2023/12/01 01:02:14;;;;;;;2.07;1.27;;;;;;;-143.84;100.00;45184.25;5091069;28;20506;-59
2023/12/01 01:04:41;;;;;;;1.57;1.47;;;;;;;-143.84;100.00;45174.75;5091520;28;20462;-59
2023/12/01 01:07:08;;;;;;;1.57;0.80;;;;;;;-143.84;100.00;45155.69;5091183;28;20440;-59
2023/12/01 01:09:35;;;;;;;0.80;0.50;;;;;;;-143.84;100.00;45209.03;5091137;28;20815;-59
2023/12/01 01:12:03;;;;;;;1.10;0.93;;;;;;;-143.84;100.00;45155.69;5091099;28;20493;-58
2023/12/01 01:14:30;;;;;;;1.03;0.93;;;;;;;-143.84;100.00;45199.50;5090960;28;20491;-58
2023/12/01 01:16:57;;;;;;;0.90;0.70;;;;;;;-143.84;100.00;45209.03;5090633;28;20495;-58
2023/12/01 01:19:26;;;;;;;1.47;1.37;;;;;;;-143.84;100.00;45209.03;5090777;28;20945;-58
2023/12/01 01:21:53;;;;;;;0.90;0.60;;;;;;;-143.84;100.00;45201.41;5090848;28;20432;-59
2023/12/01 01:24:20;;;;;;;0.90;0.80;;;;;;;-143.84;100.00;45186.16;5090752;28;20458;-58
2023/12/01 01:26:47;;;;;;;2.83;1.40;;;;;;;-143.84;100.00;45189.97;5090640;28;20439;-58
2023/12/01 01:29:15;;;;;;;4.47;1.00;;;;;;;-143.84;100.00;45212.84;5090606;28;20436;-59
2023/12/01 01:31:42;;;;;;;1.33;1.23;;;;;;;-143.84;99.98;45197.59;5090929;28;20432;-58
2023/12/01 01:34:09;;;;;;;0.80;0.50;;;;;;;-143.84;99.96;45199.50;5090485;28;20509;-59
2023/12/01 01:36:38;;;;;;;1.57;1.47;;;;;;;-143.84;99.96;45205.22;5090439;28;20440;-59
2023/12/01 01:39:05;;;;;;;0.80;0.50;;;;;;;-143.84;100.00;45212.84;5090249;28;20455;-58
2023/12/01 01:41:32;;;;;;;1.47;1.37;;;;;;;-143.84;100.00;45207.13;5090418;28;20496;-59
2023/12/01 01:43:59;;;;;;;0.80;0.50;;;;;;;-143.84;99.77;45189.97;5090434;28;20436;-59
2023/12/01 01:46:26;;;;;;;3.27;2.97;;;;;;;-143.84;99.57;45199.50;5090529;28;20440;-59
2023/12/01 01:48:55;;;;;;;1.50;1.03;;;;;;;-143.84;99.14;45178.56;5090176;28;20440;-58
2023/12/01 01:51:23;;;;;;;1.00;0.90;;;;;;;-143.84;98.76;45205.22;5089954;28;20479;-58
2023/12/01 01:53:51;;;;;;;0.90;0.70;;;;;;;-143.84;98.28;45214.72;5090083;28;20428;-58
2023/12/01 01:56:19;;;;;;;1.27;1.17;;;;;;;-143.84;98.01;45207.13;5090105;28;20930;-59
2023/12/01 01:58:47;;;;;;;1.50;0.87;;;;;;;-143.84;97.78;45186.16;5090694;28;20439;-58
2023/12/01 02:01:15;;;;;;;1.07;0.97;;;;;;;-143.84;97.75;45197.59;5090155;28;20487;-58
2023/12/01 02:03:43;;;;;;;1.77;1.13;;;;;;;-143.84;97.49;45197.59;5089902;28;20501;-58
2023/12/01 02:06:12;;;;;;;8.93;2.40;;;;;;;-143.84;97.28;45205.22;5089845;28;20447;-58
2023/12/01 02:08:40;;;;;;;1.20;1.07;;;;;;;-143.84;97.10;45203.31;5089657;28;20443;-59
2023/12/01 02:11:09;;;;;;;0.90;0.70;;;;;;;-143.84;97.18;45197.59;5089652;28;20463;-59
2023/12/01 02:13:36;;;;;;;0.83;0.67;;;;;;;-143.84;96.78;45203.31;5089867;28;20472;-59
2023/12/01 02:16:03;;;;;;;0.80;0.50;;;;;;;-143.84;96.75;45191.88;5089731;28;20483;-59
2023/12/01 02:18:33;;;;;;;0.80;0.70;;;;;;;-143.84;96.64;45207.13;5089805;28;20440;-58
2023/12/01 02:21:01;;;;;;;1.07;0.97;;;;;;;-143.84;96.41;45193.78;5089467;28;20574;-58
2023/12/01 02:23:30;;;;;;;0.80;0.50;;;;;;;-143.84;96.20;45186.16;5089657;28;20439;-59
2023/12/01 02:25:57;;;;;;;0.90;0.73;;;;;;;-143.84;95.77;45191.88;5089442;28;20995;-59
2023/12/01 02:28:24;;;;;;;1.47;1.00;;;;;;;-143.84;95.32;45197.59;5089352;28;20508;-58
2023/12/01 02:30:54;;;;;;;1.47;0.97;;;;;;;-143.84;95.13;45209.03;5089538;28;20497;-59
2023/12/01 02:33:21;;;;;;;2.40;2.20;;;;;;;-143.84;95.10;45159.50;5089540;28;20579;-58
2023/12/01 02:35:49;;;;;;;0.90;0.73;;;;;;;-143.84;95.41;45214.72;5089556;28;20525;-59
2023/12/01 02:38:17;;;;;;;1.23;1.13;;;;;;;-143.84;95.17;45197.59;5089431;28;20872;-58
2023/12/01 02:40:49;;;;;;;1.10;1.00;;;;;;;-143.84;95.28;45165.22;5088968;28;20479;-58
2023/12/01 02:43:17;;;;;;;2.13;1.43;;;;;;;-143.84;94.95;45188.06;5089114;28;20945;-59
2023/12/01 02:45:44;;;;;;;0.80;0.50;;;;;;;-143.84;94.71;45189.97;5089003;28;20440;-58
2023/12/01 02:48:12;;;;;;;1.47;0.73;;;;;;;-143.84;94.51;45218.53;5089248;28;20486;-58
2023/12/01 02:50:39;;;;;;;1.00;0.70;;;;;;;-143.84;94.39;45212.84;5089536;28;20424;-59
2023/12/01 02:53:06;;;;;;;0.90;0.70;;;;;;;-143.84;94.14;45186.16;5089047;28;20537;-59
2023/12/01 02:55:34;;;;;;;0.80;0.60;;;;;;;-143.84;93.92;45193.78;5088967;28;20432;-58
2023/12/01 02:58:02;;;;;;;0.80;0.60;;;;;;;-143.84;93.94;45199.50;5088886;28;20917;-59
2023/12/01 03:00:30;;;;;;;2.13;0.90;;;;;;;-143.84;93.64;45207.13;5088946;28;20568;-59
2023/12/01 03:02:57;;;;;;;3.70;1.03;;;;;;;-143.84;93.59;45199.50;5088810;28;20489;-58
2023/12/01 03:05:24;;;;;;;1.27;1.17;;;;;;;-143.84;93.55;45197.59;5088868;28;20887;-58
2023/12/01 03:07:51;;;;;;;1.53;1.43;;;;;;;-143.84;93.44;45186.16;5088800;28;20447;-58
2023/12/01 03:10:19;;;;;;;1.67;0.90;;;;;;;-143.84;93.39;45186.16;5088882;28;20454;-58
2023/12/01 03:12:46;;;;;;;1.57;1.00;;;;;;;-143.84;93.14;45159.50;5088681;28;20436;-58
2023/12/01 03:15:18;;;;;;;2.40;2.07;;;;;;;-143.84;92.81;45207.13;5088253;28;20487;-58
2023/12/01 03:17:45;;;;;;;1.33;1.20;;;;;;;-143.84;92.63;45188.06;5088584;28;20531;-58
2023/12/01 03:20:14;;;;;;;0.90;0.70;;;;;;;-143.84;92.43;45170.94;5088432;28;20475;-58
2023/12/01 03:22:42;;;;;;;1.83;1.70;;;;;;;-143.84;92.56;45178.56;5088944;28;20472;-58
2023/12/01 03:25:11;;;;;;;2.63;1.07;;;;;;;-143.84;92.72;45170.94;5088649;28;20440;-58
2023/12/01 03:27:41;;;;;;;1.77;1.60;;;;;;;-143.84;92.84;45186.16;5088441;28;20542;-58
2023/12/01 03:30:14;;;;;;;1.07;0.97;;;;;;;-143.84;92.52;45205.22;5088624;28;20590;-58
2023/12/01 03:32:50;;;;;;;0.97;0.87;;;;;;;-143.84;92.49;45203.31;5088747;28;20511;-58
2023/12/01 03:35:18;;;;;;;1.67;1.30;;;;;;;-143.84;92.43;45224.25;5088309;28;20451;-58
2023/12/01 03:37:46;;;;;;;0.80;0.60;;;;;;;-143.84;92.30;45203.31;5088482;28;20471;-58
2023/12/01 03:40:14;;;;;;;0.80;0.60;;;;;;;-143.84;92.14;45159.50;5088499;28;20525;-58
2023/12/01 03:42:43;;;;;;;1.00;0.80;;;;;;;-143.84;91.76;45205.22;5088441;28;20448;-58
2023/12/01 03:45:12;;;;;;;0.80;0.47;;;;;;;-143.84;91.69;45189.97;5088807;28;20436;-58
2023/12/01 03:47:40;;;;;;;0.80;0.50;;;;;;;-143.84;91.40;45195.69;5088664;28;20850;-58
2023/12/01 03:50:11;;;;;;;1.03;0.93;;;;;;;-143.84;91.17;45197.59;5088512;28;20535;-59
2023/12/01 03:52:42;;;;;;;1.00;0.87;;;;;;;-143.84;90.78;45182.38;5088392;28;20440;-58
2023/12/01 03:55:10;;;;;;;1.30;1.20;;;;;;;-143.84;90.65;45161.41;5088494;28;20529;-58
2023/12/01 03:57:38;;;;;;;1.90;1.10;;;;;;;-143.84;90.39;45189.97;5088923;28;21156;-58
2023/12/01 04:00:07;;;;;;;1.10;0.63;;;;;;;-143.84;90.01;45178.56;5092306;28;20458;-59
2023/12/01 04:02:37;;;;;;;0.80;0.40;;;;;;;-143.84;89.72;45186.16;5092377;28;20447;-58
2023/12/01 04:05:06;;;;;;;1.50;1.20;;;;;;;-143.84;89.90;45176.66;5092174;28;20523;-58
2023/12/01 04:07:35;;;;;;;1.00;0.83;;;;;;;-143.84;89.49;45197.59;5092006;28;21201;-58
2023/12/01 04:10:10;;;;;;;0.80;0.50;;;;;;;-143.84;89.38;45197.59;5092287;28;20454;-58
2023/12/01 04:12:44;;;;;;;0.80;0.70;;;;;;;-143.84;88.78;45197.59;5091888;28;20445;-58
2023/12/01 04:15:14;;;;;;;0.80;0.40;;;;;;;-143.84;88.47;45172.84;5091838;28;20479;-59
2023/12/01 04:17:43;;;;;;;0.90;0.77;;;;;;;-143.84;88.49;45159.50;5091877;28;20510;-58
2023/12/01 04:20:22;;;;;;;1.37;1.03;;;;;;;-143.84;88.27;45201.41;5092030;28;20460;-58
2023/12/01 04:22:55;;;;;;;1.27;0.80;;;;;;;-143.84;87.79;45186.16;5091695;28;20514;-58
2023/12/01 04:25:22;;;;;;;1.17;0.67;;;;;;;-143.84;88.04;45188.06;5091696;28;20501;-58
2023/12/01 04:27:51;;;;;;;1.37;1.03;;;;;;;-143.84;87.84;45195.69;5091676;28;21013;-57
2023/12/01 04:30:18;;;;;;;4.43;2.40;;;;;;;-143.84;87.76;45220.44;5091630;28;20444;-58
2023/12/01 04:32:48;;;;;;;1.00;0.83;;;;;;;-143.84;87.89;45189.97;5091604;28;20497;-58
2023/12/01 04:35:15;;;;;;;1.20;0.80;;;;;;;-143.84;87.73;45159.50;5092091;28;20435;-58
2023/12/01 04:37:42;;;;;;;1.10;0.83;;;;;;;-143.84;87.53;45201.41;5091867;28;21237;-57
2023/12/01 04:40:14;;;;;;;0.90;0.60;;;;;;;-143.84;87.38;45189.97;5091482;28;20443;-57
2023/12/01 04:42:44;;;;;;;1.40;0.80;;;;;;;-143.84;87.56;45252.81;5091303;28;20527;-58
2023/12/01 04:45:12;;;;;;;0.80;0.50;;;;;;;-143.84;87.29;45205.22;5091215;28;20531;-58
2023/12/01 04:47:41;;;;;;;5.87;3.23;;;;;;;-143.84;87.43;45186.16;5091240;28;20981;-58
2023/12/01 04:50:13;;;;;;;1.00;0.90;;;;;;;-143.84;87.05;45188.06;5091251;28;20440;-58
2023/12/01 04:52:42;;;;;;;0.80;0.50;;;;;;;-143.84;86.70;45191.88;5091305;28;20428;-58
2023/12/01 04:55:13;;;;;;;0.97;0.80;;;;;;;-143.84;86.78;45178.56;5091106;28;20523;-58
2023/12/01 04:57:40;;;;;;;1.27;0.63;;;;;;;-143.84;86.41;45209.03;5091091;28;20596;-58
2023/12/01 05:00:19;;;;;;;0.80;0.60;;;;;;;-143.84;86.77;45209.03;5091274;28;20866;-58
2023/12/01 05:02:51;;;;;;;1.30;1.10;;;;;;;-143.84;86.54;45186.16;5090990;28;20467;-58
2023/12/01 05:05:19;;;;;;;1.13;1.00;;;;;;;-143.84;86.71;45178.56;5091122;28;20455;-58
2023/12/01 05:07:49;;;;;;;0.80;0.57;;;;;;;-143.84;86.75;45163.31;5090988;28;20439;-58
2023/12/01 05:10:19;;;;;;;2.07;1.93;;;;;;;-143.84;86.63;45178.56;5090704;28;20464;-58
2023/12/01 05:12:49;;;;;;;1.10;1.00;;;;;;;-143.84;86.38;45186.16;5090841;28;20452;-58
2023/12/01 05:15:17;;;;;;;0.90;0.73;;;;;;;-143.84;86.00;45193.78;5090422;28;20536;-58
2023/12/01 05:17:45;;;;;;;1.00;0.83;;;;;;;-143.84;85.34;45172.84;5090554;28;20509;-58
2023/12/01 05:20:16;;;;;;;0.80;0.60;;;;;;;-143.84;85.56;45189.97;5090161;28;20447;-58
2023/12/01 05:22:45;;;;;;;0.80;0.60;;;;;;;-143.84;85.41;45205.22;5090314;28;21064;-58
2023/12/01 05:25:14;;;;;;;1.13;1.03;;;;;;;-143.84;84.98;45191.88;5090159;28;20440;-58
2023/12/01 05:27:45;;;;;;;1.20;1.10;;;;;;;-143.84;85.11;45186.16;5090446;28;20987;-58
2023/12/01 05:30:14;;;;;;;1.07;0.80;;;;;;;-143.84;84.92;45191.88;5090515;28;20523;-60
2023/12/01 05:32:43;;;;;;;1.77;1.03;;;;;;;-143.84;84.43;45174.75;5090196;28;20830;-57
2023/12/01 05:35:11;;;;;;;0.90;0.67;;;;;;;-143.84;84.35;45207.13;5090506;28;20448;-60
2023/12/01 05:37:40;;;;;;;0.80;0.50;;;;;;;-143.84;84.34;45172.84;5090451;28;20436;-58
2023/12/01 05:40:09;;;;;;;0.90;0.60;;;;;;;-143.84;84.27;45180.47;5090445;28;20539;-58
2023/12/01 05:42:36;;;;;;;0.80;0.50;;;;;;;-143.84;84.15;45197.59;5090281;28;20956;-57
2023/12/01 05:45:11;;;;;;;1.00;0.90;;;;;;;-143.84;83.63;45199.50;5090323;28;21118;-57
2023/12/01 05:47:42;;;;;;;0.90;0.70;;;;;;;-143.84;83.25;45191.88;5090403;28;20443;-57
2023/12/01 05:50:13;;;;;;;1.00;0.70;;;;;;;-143.84;83.11;45199.50;5090410;28;21240;-57
2023/12/01 05:52:41;;;;;;;1.43;1.17;;;;;;;-143.84;82.83;45178.56;5090420;28;21024;-57
2023/12/01 05:55:14;;;;;;;1.17;1.07;;;;;;;-143.84;83.15;45170.94;5090072;28;20479;-57
2023/12/01 05:57:43;;;;;;;0.80;0.60;;;;;;;-143.84;82.89;45186.16;5090102;28;20489;-57
2023/12/01 06:00:15;;;;;;;0.80;0.40;;;;;;;-143.84;82.38;45184.25;5089809;28;20800;-58
2023/12/01 06:02:44;;;;;;;0.83;0.57;;;;;;;-143.84;82.18;45193.78;5089699;28;20471;-57
2023/12/01 06:05:12;;;;;;;0.87;0.70;;;;;;;-143.84;82.02;45176.66;5089984;28;21024;-57
2023/12/01 06:07:45;;;;;;;1.40;1.27;;;;;;;-143.84;82.18;45163.31;5090057;28;21321;-58
2023/12/01 06:10:13;;;;;;;0.80;0.50;;;;;;;-143.84;82.25;45176.66;5089786;28;20446;-57
2023/12/01 06:12:40;;;;;;;1.00;0.90;;;;;;;-143.84;81.95;45189.97;5089985;28;20505;-57
2023/12/01 06:15:09;;;;;;;0.80;0.50;;;;;;;-143.84;81.64;45207.13;5089254;28;21023;-58
2023/12/01 06:17:38;;;;;;;1.00;0.90;;;;;;;-143.84;81.38;45209.03;5089563;28;20443;-57
2023/12/01 06:20:16;;;;;;;1.00;0.90;;;;;;;-143.84;81.67;45191.88;5089378;28;20484;-58
2023/12/01 06:22:45;;;;;;;1.17;0.50;;;;;;;-143.84;80.87;45178.56;5089335;28;20566;-57
2023/12/01 06:25:12;;;;;;;0.80;0.50;;;;;;;-143.84;80.68;45201.41;5089705;28;20968;-57
2023/12/01 06:27:40;;;;;;;0.80;0.63;;;;;;;-143.84;80.81;45186.16;5089540;28;20493;-57
2023/12/01 06:30:11;;;;;;;1.10;0.70;;;;;;;-143.84;81.01;45172.84;5089375;28;20968;-57
2023/12/01 06:32:41;;;;;;;2.13;1.10;;;;;;;-143.84;81.01;45180.47;5089296;28;20534;-57
2023/12/01 06:35:10;;;;;;;2.63;1.60;;;;;;;-143.84;80.51;45178.56;5089263;28;20898;-57
2023/12/01 06:37:38;;;;;;;0.90;0.50;;;;;;;-143.84;80.19;45155.69;5089164;28;20534;-58
2023/12/01 06:40:11;;;;;;;1.00;0.90;;;;;;;-143.84;80.39;45199.50;5089208;28;20505;-57
2023/12/01 06:42:40;;;;;;;1.57;1.20;;;;;;;-143.84;80.43;45199.50;5089388;28;20598;-58
2023/12/01 06:45:10;;;;;;;1.10;0.80;;;;;;;-143.84;79.87;45172.84;5089176;28;20522;-58
2023/12/01 06:47:37;;;;;;;0.90;0.60;;;;;;;-143.84;79.98;45184.25;5089299;28;20452;-57
2023/12/01 06:50:08;;;;;;;0.93;0.53;;;;;;;-143.84;79.34;45161.41;5089084;28;20436;-57
2023/12/01 06:52:35;;;;;;;2.20;2.10;;;;;;;-143.84;79.03;45174.75;5089209;28;20537;-57
2023/12/01 06:55:03;;;;;;;2.63;0.57;;;;;;;-143.84;78.65;45176.66;5089178;28;20509;-57
2023/12/01 06:57:30;;;;;;;1.10;0.70;;;;;;;-143.84;77.88;45178.56;5088720;28;20447;-57
2023/12/01 06:59:57;;;;;;;0.90;0.63;;;;;;;-143.84;78.00;45172.84;5088842;28;20957;-57
2023/12/01 07:02:25;;;;;;;0.80;0.60;;;;;;;-143.84;77.82;45176.66;5089193;28;20512;-57
2023/12/01 07:04:55;;;;;;;1.37;0.67;;;;;;;-143.84;77.83;45180.47;5088848;28;20444;-57
2023/12/01 07:07:24;;;;;;;0.90;0.63;;;;;;;-143.84;77.43;45189.97;5088908;28;20785;-58
2023/12/01 07:09:52;;;;;;;0.80;0.50;;;;;;;-143.84;77.12;45170.94;5088761;28;20941;-57
2023/12/01 07:12:19;;;;;;;1.30;0.83;;;;;;;-143.84;77.63;45157.59;5088714;28;20444;-57
2023/12/01 07:14:46;;;;;;;0.80;0.50;;;;;;;-143.84;77.58;45174.75;5088452;28;20440;-57
2023/12/01 07:17:13;;;;;;;0.80;0.50;;;;;;;-143.84;77.15;45191.88;5088990;28;20793;-58
2023/12/01 07:19:40;;;;;;;1.40;1.00;;;;;;;-143.84;77.23;45172.84;5089071;28;20782;-58
2023/12/01 07:22:08;;;;;;;0.87;0.70;;;;;;;-143.84;76.69;45176.66;5088567;28;20480;-57
2023/12/01 07:24:36;;;;;;;0.80;0.40;;;;;;;-143.84;76.93;45159.50;5088815;28;20994;-57
2023/12/01 07:27:04;;;;;;;1.00;0.70;;;;;;;-143.84;76.58;45188.06;5088473;28;20444;-58
2023/12/01 07:29:31;;;;;;;0.80;0.60;;;;;;;-143.84;76.44;45146.19;5088722;28;20455;-57
2023/12/01 07:31:59;;;;;;;0.80;0.70;;;;;;;-143.84;75.89;45167.13;5089370;28;20501;-57
2023/12/01 07:34:27;;;;;;;0.80;0.40;;;;;;;-143.84;75.75;45163.31;5093158;28;21312;-57
2023/12/01 07:36:54;;;;;;;0.90;0.73;;;;;;;-143.84;75.50;45163.31;5093098;28;20444;-57
2023/12/01 07:39:23;;;;;;;0.90;0.80;;;;;;;-143.84;74.78;45163.31;5093113;28;20428;-58
2023/12/01 07:41:51;;;;;;;0.83;0.60;;;;;;;-143.84;74.75;45170.94;5092629;28;20486;-57
2023/12/01 07:44:18;;;;;;;0.80;0.60;;;;;;;-143.84;74.51;45180.47;5092638;28;20518;-57
2023/12/01 07:46:46;;;;;;;1.00;0.73;;;;;;;-143.84;74.13;45167.13;5092417;28;20927;-57
2023/12/01 07:49:13;;;;;;;3.23;0.70;;;;;;;-143.84;73.21;45163.31;5092801;28;20451;-57
2023/12/01 07:51:40;;;;;;;0.90;0.60;;;;;;;-143.84;73.50;45155.69;5092473;28;20961;-57
2023/12/01 07:54:07;;;;;;;0.90;0.70;;;;;;;-143.84;73.29;45167.13;5092483;28;20444;-58
2023/12/01 07:56:35;;;;;;;0.90;0.70;;;;;;;-143.84;72.97;45167.13;5092228;28;20822;-58
2023/12/01 07:59:05;;;;;;;1.13;1.03;;;;;;;-143.84;72.89;45159.50;5092364;28;20500;-58
2023/12/01 08:01:32;;;;;;;0.80;0.60;;;;;;;-143.84;72.79;45174.75;5092284;28;20974;-57
2023/12/01 08:04:00;;;;;;;0.80;0.67;;;;;;;-143.84;73.05;45167.13;5092055;28;20450;-57
2023/12/01 08:06:27;;;;;;;0.80;0.40;;;;;;;-143.84;72.84;45178.56;5092220;28;20439;-57
2023/12/01 08:08:54;;;;;;;0.80;0.50;;;;;;;-143.84;72.43;45189.97;5092321;28;21012;-57
2023/12/01 08:11:21;;;;;;;1.00;0.90;;;;;;;-143.84;72.53;45186.16;5092093;28;20431;-57
2023/12/01 08:13:49;;;;;;;0.90;0.67;;;;;;;-143.84;72.14;45161.41;5092350;28;20431;-58
2023/12/01 08:16:18;;;;;;;1.07;0.97;;;;;;;-143.84;72.17;45159.50;5092014;28;20522;-57
2023/12/01 08:18:45;;;;;;;0.87;0.70;;;;;;;-143.84;72.02;45189.97;5091993;28;20910;-58
2023/12/01 08:21:13;;;;;;;0.90;0.70;;;;;;;-143.84;71.38;45180.47;5091677;28;20447;-57
2023/12/01 08:23:40;;;;;;;1.10;1.00;;;;;;;-143.84;71.28;45178.56;5091872;28;20479;-57
2023/12/01 08:26:09;;;;;;;0.80;0.60;;;;;;;-143.84;71.05;45170.94;5092220;28;20486;-57
2023/12/01 08:28:36;;;;;;;0.90;0.60;;;;;;;-143.84;70.45;45148.09;5091677;28;20444;-57
2023/12/01 08:31:04;;;;;;;1.00;0.80;;;;;;;-143.84;70.37;45167.13;5091964;28;20462;-57
2023/12/01 08:33:35;;;;;;;1.07;0.97;;;;;;;-143.84;70.93;45159.50;5091708;28;20815;-58
2023/12/01 08:36:02;;;;;;;0.80;0.60;;;;;;;-143.84;71.06;45138.56;5091751;28;20448;-57
2023/12/01 08:38:29;;;;;;;6.23;1.50;;;;;;;-143.84;70.59;45167.13;5091800;28;20439;-57
2023/12/01 08:40:56;;;;;;;1.93;0.83;;;;;;;-143.84;70.00;45170.94;5092091;28;20443;-58
2023/12/01 08:43:24;;;;;;;0.90;0.70;;;;;;;-143.84;69.79;45159.50;5091292;28;20471;-57
2023/12/01 08:45:51;;;;;;;0.90;0.63;;;;;;;-143.84;69.92;45172.84;5091377;28;20432;-57
2023/12/01 08:48:18;;;;;;;2.13;0.50;;;;;;;-143.84;69.53;45170.94;5091827;28;21120;-57
2023/12/01 08:50:46;;;;;;;0.90;0.60;;;;;;;-143.84;69.20;45150.00;5091539;28;20440;-57
2023/12/01 08:53:14;;;;;;;1.30;0.73;;;;;;;-143.84;68.61;45151.91;5091151;28;20473;-57
2023/12/01 08:55:41;;;;;;;0.80;0.50;;;;;;;-143.84;68.53;45151.91;5090994;28;20447;-57
2023/12/01 08:58:08;;;;;;;0.80;0.50;;;;;;;-143.84;68.29;45151.91;5091199;28;20925;-57
2023/12/01 09:00:35;;;;;;;4.30;1.37;;;;;;;-143.84;68.24;45163.31;5091119;28;20440;-57
2023/12/01 09:03:02;;;;;;;0.90;0.60;;;;;;;-143.84;68.06;45163.31;5091045;28;20483;-57
2023/12/01 09:05:32;;;;;;;0.80;0.50;;;;;;;-143.84;67.08;45172.84;5091108;28;20967;-57
2023/12/01 09:08:04;;;;;;;0.80;0.50;;;;;;;-143.84;66.33;45140.47;5090848;28;20447;-57
2023/12/01 09:10:31;;;;;;;0.80;0.50;;;;;;;-143.84;66.37;45151.91;5091049;28;20439;-57
2023/12/01 09:12:59;;;;;;;0.80;0.40;;;;;;;-143.84;65.77;45155.69;5090804;28;20448;-60
2023/12/01 09:15:26;;;;;;;0.80;0.50;;;;;;;-143.84;65.18;45123.34;5090716;28;20475;-60
2023/12/01 09:17:53;;;;;;;0.90;0.60;;;;;;;-143.84;64.31;45136.66;5090815;28;20451;-60
2023/12/01 09:20:20;;;;;;;0.80;0.50;;;;;;;-143.84;63.54;45136.66;5090858;28;20764;-60
2023/12/01 09:22:48;;;;;;;1.40;0.90;;;;;;;-143.84;62.08;45146.19;5090670;28;20483;-60
2023/12/01 09:25:16;;;;;;;0.83;0.60;;;;;;;-143.84;60.68;45155.69;5090961;28;20436;-60
2023/12/01 09:27:44;;;;;;;1.00;0.87;;;;;;;-143.84;58.36;45151.91;5090734;28;20561;-60
2023/12/01 09:30:15;;;;;;;0.90;0.60;;;;;;;-143.84;57.31;45144.28;5090341;28;20446;-60
2023/12/01 09:32:43;;;;;;;0.90;0.50;;;;;;;-143.84;56.81;45148.09;5090673;28;20535;-60
2023/12/01 09:35:10;;;;;;;1.00;0.57;;;;;;;-143.84;56.15;45104.28;5090469;28;20444;-60
2023/12/01 09:37:38;;;;;;;0.80;0.60;;;;;;;-143.84;55.99;45127.13;5090426;28;20448;-60
2023/12/01 09:40:07;;;;;;;0.80;0.50;;;;;;;-143.84;56.59;45161.41;5090505;28;20440;-60
2023/12/01 09:42:38;;;;;;;0.80;0.50;;;;;;;-143.84;57.05;45167.13;5090478;28;20570;-60
2023/12/01 09:45:09;;;;;;;1.00;0.87;;;;;;;-143.84;56.72;45129.03;5090200;28;20459;-60
2023/12/01 09:47:49;;;;;;;2.70;1.83;;;;;;;-143.84;58.38;45151.91;5090471;28;20525;-61
2023/12/01 09:50:16;;;;;;;0.93;0.53;;;;;;;-143.84;58.25;45142.38;5090606;28;21022;-60
2023/12/01 09:52:44;;;;;;;0.80;0.50;;;;;;;-143.84;59.03;45140.47;5090264;28;20443;-61
2023/12/01 09:55:11;;;;;;;0.80;0.50;;;;;;;-143.84;59.68;45148.09;5088992;28;20512;-61
2023/12/01 09:57:42;;;;;;;1.00;0.80;;;;;;;-143.84;59.76;45125.22;5088774;28;20840;-61
2023/12/01 10:00:11;;;;;;;1.07;0.77;;;;;;;-143.84;60.09;45140.47;5089208;28;20446;-61
2023/12/01 10:02:39;;;;;;;1.10;0.70;;;;;;;-143.84;60.44;45178.56;5089433;28;21059;-61
2023/12/01 10:05:07;;;;;;;0.80;0.50;;;;;;;-143.84;59.78;45140.47;5089491;28;20479;-58
2023/12/01 10:07:34;;;;;;;0.90;0.70;;;;;;;-143.84;60.87;45142.38;5089896;28;20463;-58
2023/12/01 10:10:17;;;;;;;1.57;1.33;;;;;;;-143.84;60.57;45142.38;5089817;28;20436;-58
2023/12/01 10:12:56;;;;;;;1.70;0.70;;;;;;;-143.84;60.05;45117.63;5089703;28;20450;-58
2023/12/01 10:15:24;;;;;;;1.10;0.60;;;;;;;-143.84;59.53;45113.81;5089430;28;20471;-58
2023/12/01 10:17:52;;;;;;;1.00;0.77;;;;;;;-143.84;59.24;45142.38;5089594;28;20441;-58
2023/12/01 10:20:21;;;;;;;0.90;0.70;;;;;;;-143.84;59.38;45140.47;5089633;28;20451;-58
2023/12/01 10:22:49;;;;;;;0.80;0.50;;;;;;;-143.84;59.09;45127.13;5089963;28;20479;-58
2023/12/01 10:25:17;;;;;;;1.33;0.83;;;;;;;-143.84;59.51;45151.91;5089719;28;20514;-58
2023/12/01 10:27:56;;;;;;;0.80;0.60;;;;;;;-143.84;58.87;45134.75;5089636;28;20439;-58
2023/12/01 10:30:24;;;;;;;0.83;0.53;;;;;;;-143.84;59.18;45127.13;5089552;28;20497;-58
2023/12/01 10:32:52;;;;;;;1.63;0.80;;;;;;;-143.84;58.99;45130.94;5089281;28;20860;-58
2023/12/01 10:35:19;;;;;;;1.17;0.67;;;;;;;-143.84;58.67;45142.38;5089564;28;20579;-58
2023/12/01 10:37:48;;;;;;;1.20;0.90;;;;;;;-143.84;58.54;45121.44;5089473;28;20769;-58
2023/12/01 10:40:17;;;;;;;0.90;0.50;;;;;;;-143.84;58.73;45150.00;5089267;28;20523;-58
2023/12/01 10:42:48;;;;;;;1.03;0.93;;;;;;;-143.84;59.27;45157.59;5089390;28;20499;-57
2023/12/01 10:45:18;;;;;;;6.10;1.03;;;;;;;-143.84;58.37;45123.34;5089094;28;20501;-58
2023/12/01 10:47:46;;;;;;;1.63;0.80;;;;;;;-143.84;58.05;45167.13;5089205;28;20838;-58
2023/12/01 10:50:17;;;;;;;2.30;1.23;;;;;;;-143.84;57.95;45144.28;5088852;28;20535;-58
2023/12/01 10:52:47;;;;;;;0.80;0.40;;;;;;;-143.84;56.78;45142.38;5089031;28;20469;-57
2023/12/01 10:55:14;;;;;;;0.80;0.50;;;;;;;-143.84;56.31;45136.66;5089092;28;21302;-58
2023/12/01 10:57:44;;;;;;;0.90;0.67;;;;;;;-143.84;56.77;45144.28;5089138;28;20436;-58
2023/12/01 11:00:29;;;;;;;1.30;0.63;;;;;;;-143.84;56.68;45150.00;5089182;28;20427;-58
2023/12/01 11:03:03;;;;;;;1.13;0.80;;;;;;;-143.84;57.41;45146.19;5088756;28;20574;-58
2023/12/01 11:05:33;;;;;;;0.90;0.60;;;;;;;-143.84;57.13;45153.81;5089288;28;20443;-58
2023/12/01 11:08:24;;;;;;;2.67;1.07;;;;;;;-143.84;55.64;45132.84;5088477;28;20448;-58
2023/12/01 11:11:07;;;;;;;0.83;0.47;;;;;;;-143.84;55.37;45146.19;5088626;28;20440;-58
2023/12/01 11:13:43;;;;;;;0.80;0.40;;;;;;;-143.84;54.75;45125.22;5088726;28;20530;-58
2023/12/01 11:16:11;;;;;;;0.83;0.47;;;;;;;-143.84;54.80;45119.53;5088599;28;20494;-58
2023/12/01 11:18:43;;;;;;;1.73;1.00;;;;;;;-143.84;53.70;45123.34;5088549;28;20455;-58
2023/12/01 11:21:10;;;;;;;0.90;0.43;;;;;;;-143.84;53.97;45123.34;5089005;28;20485;-58
2023/12/01 11:23:37;;;;;;;0.90;0.73;;;;;;;-143.84;53.47;45121.44;5088754;28;20491;-57